Santa Barbara — 3FWW8 — position and weather

sailwx.info

Track history (hours):
 
Tides and Currents Weather Stations Pressure Air Temp Water Temp Dewpoint Dewpoint Depression Visibility Wind Speed Wind Dir Waves Ship Positions

Santa Barbara

Last reported at 2016-Apr-13 02:33 UTC. Time now 2016-May-03 05:02 UTC.
Position N 43°54' W 006°31'.
Warning: this ship's position is 20 days out of date.

Length 225 m; draft 8.8 m.

Type: Cargo ship. MMSI: 372230000.

Date/timePositionNaut miles runAvg speedWind from/ knotsBaromVisibWave heightAir tempDewpointWater temp
2016-Apr-13 02:33N 43°54' W 006°31'1514.3
2016-Apr-13 01:30N 43°54' W 006°10'1414.5
2016-Apr-13 00:33N 43°54' W 005°51'1514.6
2016-Apr-12 23:33N 43°54' W 005°31'1615.1
2016-Apr-12 22:31N 43°55' W 005°10'3115.2
2016-Apr-12 20:28N 43°56' W 004°26'  
2016-Apr-06 15:27N 43°46' W 004°55'1213.1
2016-Apr-06 14:30N 43°49' W 005°12'1412.0
2016-Apr-06 13:21N 43°51' W 005°31'910.4
2016-Apr-06 12:31N 43°52' W 005°43'1313.6
2016-Apr-06 11:32N 43°52' W 006°02'  
Track history (hours):
 
Tides and Currents Weather Stations Pressure Air Temp Water Temp Dewpoint Dewpoint Depression Visibility Wind Speed Wind Dir Waves Ship Positions

Santa Barbara

Last reported at 2016-Apr-13 02:33 UTC. Time now 2016-May-03 05:02 UTC.
Position N 43°54' W 006°31'.
Warning: this ship's position is 20 days out of date.

Length 225 m; draft 8.8 m.

Type: Cargo ship. MMSI: 372230000.

Date/timePositionNaut miles runAvg speedWind from/ knotsBaromVisibWave heightAir tempDewpointWater temp
2016-Apr-13 02:33N 43°54' W 006°31'1514.3
2016-Apr-13 01:30N 43°54' W 006°10'1414.5
2016-Apr-13 00:33N 43°54' W 005°51'1514.6
2016-Apr-12 23:33N 43°54' W 005°31'1615.1
2016-Apr-12 22:31N 43°55' W 005°10'3115.2
2016-Apr-12 20:28N 43°56' W 004°26'  
2016-Apr-06 15:27N 43°46' W 004°55'1213.1
2016-Apr-06 14:30N 43°49' W 005°12'1412.0
2016-Apr-06 13:21N 43°51' W 005°31'910.4
2016-Apr-06 12:31N 43°52' W 005°43'1313.6
2016-Apr-06 11:32N 43°52' W 006°02'  

Dump ship's entire track history